createdAt,value
2018-01-01T00:00:21.601Z,788.12
2018-01-01T00:00:25.658Z,788.17
2018-01-01T00:00:29.994Z,788.16
2018-01-01T00:00:33.795Z,788.17
2018-01-01T00:00:37.813Z,788.18
2018-01-01T00:00:41.707Z,788.17
2018-01-01T00:00:45.602Z,788.22
2018-01-01T00:00:49.508Z,788.2
2018-01-01T00:00:53.205Z,788.22
2018-01-01T00:00:57.211Z,788.2
2018-01-01T00:01:01.022Z,788.2
2018-01-01T00:01:05.070Z,788.21
2018-01-01T00:01:09.090Z,788.23
2018-01-01T00:01:12.887Z,788.21
2018-01-01T00:01:16.888Z,788.21
2018-01-01T00:01:20.592Z,788.2
2018-01-01T00:01:24.508Z,788.2
2018-01-01T00:01:28.530Z,788.2
2018-01-01T00:01:32.438Z,788.21
2018-01-01T00:01:36.235Z,788.19
2018-01-01T00:01:40.237Z,788.21
2018-01-01T00:01:44.065Z,788.23
2018-01-01T00:01:48.088Z,788.18
2018-01-01T00:01:51.985Z,788.2
2018-01-01T00:01:55.794Z,788.22
2018-01-01T00:01:59.806Z,788.23
2018-01-01T00:02:03.946Z,788.23
2018-01-01T00:02:07.858Z,788.24
2018-01-01T00:02:11.759Z,788.24
2018-01-01T00:02:15.687Z,788.27
2018-01-01T00:02:19.372Z,788.28
2018-01-01T00:02:23.382Z,788.26
2018-01-01T00:02:27.406Z,788.27
2018-01-01T00:02:31.426Z,788.27
2018-01-01T00:02:35.351Z,788.29
2018-01-01T00:02:39.584Z,788.3
2018-01-01T00:02:43.400Z,788.26
2018-01-01T00:02:47.426Z,788.28
2018-01-01T00:02:51.229Z,788.24
2018-01-01T00:02:55.043Z,788.26
2018-01-01T00:02:59.064Z,788.29
2018-01-01T00:03:02.982Z,788.28
2018-01-01T00:03:07.010Z,788.26
2018-01-01T00:03:10.830Z,788.29
2018-01-01T00:03:14.844Z,788.28
2018-01-01T00:03:18.545Z,788.31
2018-01-01T00:03:22.571Z,788.31
2018-01-01T00:03:26.706Z,788.29
2018-01-01T00:03:30.414Z,788.3
2018-01-01T00:03:34.422Z,788.33
2018-01-01T00:03:38.208Z,788.32
2018-01-01T00:03:42.118Z,788.31
2018-01-01T00:03:45.913Z,788.32
2018-01-01T00:03:49.925Z,788.34
2018-01-01T00:03:53.968Z,788.27
2018-01-01T00:03:57.866Z,788.29
2018-01-01T00:04:01.677Z,788.31
2018-01-01T00:04:05.625Z,788.31
2018-01-01T00:04:09.667Z,788.33
2018-01-01T00:04:13.787Z,788.32
2018-01-01T00:04:17.586Z,788.34
2018-01-01T00:04:21.488Z,788.35
2018-01-01T00:04:25.190Z,788.31
2018-01-01T00:04:29.108Z,788.34
2018-01-01T00:04:33.038Z,788.34
2018-01-01T00:04:36.730Z,788.35
2018-01-01T00:04:40.643Z,788.31
2018-01-01T00:04:44.499Z,788.33
2018-01-01T00:04:48.401Z,788.31
2018-01-01T00:04:52.210Z,788.29
2018-01-01T00:04:56.020Z,788.37
2018-01-01T00:05:00.043Z,788.39
2018-01-01T00:05:04.168Z,788.29
2018-01-01T00:05:08.212Z,788.28
2018-01-01T00:05:12.241Z,788.29
2018-01-01T00:05:16.152Z,788.32
2018-01-01T00:05:20.166Z,788.34
2018-01-01T00:05:24.075Z,788.34
2018-01-01T00:05:28.092Z,788.35
2018-01-01T00:05:31.806Z,788.36
2018-01-01T00:05:36.033Z,788.36
2018-01-01T00:05:40.041Z,788.35
2018-01-01T00:05:43.973Z,788.4
2018-01-01T00:05:47.780Z,788.37
2018-01-01T00:05:51.606Z,788.37
2018-01-01T00:05:55.628Z,788.36
2018-01-01T00:05:59.444Z,788.37
2018-01-01T00:06:03.258Z,788.35
2018-01-01T00:06:07.387Z,788.38
2018-01-01T00:06:11.182Z,788.39
2018-01-01T00:06:15.099Z,788.35
2018-01-01T00:06:19.013Z,788.38
2018-01-01T00:06:22.795Z,788.38
2018-01-01T00:06:26.916Z,788.39
2018-01-01T00:06:30.718Z,788.35
2018-01-01T00:06:34.837Z,788.39
2018-01-01T00:06:38.861Z,788.4
2018-01-01T00:06:42.762Z,788.38
2018-01-01T00:06:46.560Z,788.39
2018-01-01T00:06:50.463Z,788.37
2018-01-01T00:06:54.362Z,788.38
2018-01-01T00:06:58.280Z,788.4
2018-01-01T00:07:02.355Z,788.38
2018-01-01T00:07:06.611Z,788.39
2018-01-01T00:07:11.277Z,788.38
2018-01-01T00:07:15.237Z,788.36
2018-01-01T00:07:18.948Z,788.35
2018-01-01T00:07:22.759Z,788.41
2018-01-01T00:07:26.665Z,788.35
2018-01-01T00:07:30.474Z,788.4
2018-01-01T00:07:34.284Z,788.38
2018-01-01T00:07:38.213Z,788.38
2018-01-01T00:07:42.024Z,788.4
2018-01-01T00:07:45.833Z,788.38
2018-01-01T00:07:49.522Z,788.39
2018-01-01T00:07:53.429Z,788.42
2018-01-01T00:07:57.548Z,788.39
2018-01-01T00:08:01.454Z,788.42
2018-01-01T00:08:05.422Z,788.42
2018-01-01T00:08:09.342Z,788.4
2018-01-01T00:08:13.133Z,788.4
2018-01-01T00:08:17.172Z,788.39
2018-01-01T00:08:21.196Z,788.4
2018-01-01T00:08:25.109Z,788.4
2018-01-01T00:08:28.946Z,788.42
2018-01-01T00:08:32.744Z,788.38
2018-01-01T00:08:36.766Z,788.41
2018-01-01T00:08:40.893Z,788.4
2018-01-01T00:08:44.793Z,788.41
2018-01-01T00:08:48.797Z,788.41
2018-01-01T00:08:52.608Z,788.38
2018-01-01T00:08:56.425Z,788.39
2018-01-01T00:09:00.451Z,788.41
2018-01-01T00:09:04.725Z,788.42
2018-01-01T00:09:08.656Z,788.42
2018-01-01T00:09:12.466Z,788.4
2018-01-01T00:09:16.471Z,788.42
2018-01-01T00:09:20.370Z,788.45
2018-01-01T00:09:24.190Z,788.42
2018-01-01T00:09:28.104Z,788.42
2018-01-01T00:09:31.816Z,788.4
2018-01-01T00:09:35.734Z,788.42
2018-01-01T00:09:39.655Z,788.4
2018-01-01T00:09:43.616Z,788.41
2018-01-01T00:09:47.425Z,788.43
2018-01-01T00:09:51.444Z,788.43
2018-01-01T00:09:55.465Z,788.45
2018-01-01T00:09:59.389Z,788.42
2018-01-01T00:10:03.499Z,788.41
2018-01-01T00:10:07.417Z,788.44
2018-01-01T00:10:11.237Z,788.39
2018-01-01T00:10:15.240Z,788.43
2018-01-01T00:10:19.155Z,788.43
2018-01-01T00:10:23.169Z,788.4
2018-01-01T00:10:26.965Z,788.4
2018-01-01T00:10:30.871Z,788.38
2018-01-01T00:10:34.791Z,788.41
2018-01-01T00:10:38.698Z,788.44
2018-01-01T00:10:42.738Z,788.42
2018-01-01T00:10:46.759Z,788.47
2018-01-01T00:10:50.571Z,788.43
2018-01-01T00:10:54.269Z,788.44
2018-01-01T00:10:58.083Z,788.41
2018-01-01T00:11:01.893Z,788.4
2018-01-01T00:11:05.650Z,788.42
2018-01-01T00:11:09.459Z,788.42
2018-01-01T00:11:13.459Z,788.43
2018-01-01T00:11:17.480Z,788.41
2018-01-01T00:11:21.503Z,788.42
2018-01-01T00:11:25.507Z,788.42
2018-01-01T00:11:29.520Z,788.43
2018-01-01T00:11:33.322Z,788.44
2018-01-01T00:11:37.121Z,788.42
2018-01-01T00:11:40.931Z,788.4
2018-01-01T00:11:44.828Z,788.42
2018-01-01T00:11:48.637Z,788.39
2018-01-01T00:11:52.541Z,788.42
2018-01-01T00:11:56.234Z,788.42
2018-01-01T00:12:00.040Z,788.43
2018-01-01T00:12:04.143Z,788.42
2018-01-01T00:12:08.072Z,788.39
2018-01-01T00:12:12.109Z,788.39
2018-01-01T00:12:16.135Z,788.4
2018-01-01T00:12:20.064Z,788.4
2018-01-01T00:12:23.861Z,788.41
2018-01-01T00:12:27.772Z,788.38
2018-01-01T00:12:31.583Z,788.38
2018-01-01T00:12:35.612Z,788.4
2018-01-01T00:12:39.524Z,788.41
2018-01-01T00:12:43.332Z,788.42
2018-01-01T00:12:47.337Z,788.41
2018-01-01T00:12:51.038Z,788.42
2018-01-01T00:12:55.339Z,788.41
2018-01-01T00:12:59.295Z,788.44
2018-01-01T00:13:03.213Z,788.43
2018-01-01T00:13:07.119Z,788.43
2018-01-01T00:13:10.820Z,788.43
2018-01-01T00:13:14.530Z,788.41
2018-01-01T00:13:18.430Z,788.42
2018-01-01T00:13:22.344Z,788.42
2018-01-01T00:13:26.357Z,788.45
2018-01-01T00:13:30.165Z,788.45
2018-01-01T00:13:34.084Z,788.47
2018-01-01T00:13:38.000Z,788.44
2018-01-01T00:13:41.818Z,788.45
2018-01-01T00:13:45.955Z,788.46
2018-01-01T00:13:49.769Z,788.47
2018-01-01T00:13:53.868Z,788.46
2018-01-01T00:13:57.871Z,788.51
2018-01-01T00:14:01.988Z,788.48
2018-01-01T00:14:05.904Z,788.48
2018-01-01T00:14:09.831Z,788.45
2018-01-01T00:14:13.625Z,788.49
2018-01-01T00:14:17.522Z,788.48
2018-01-01T00:14:21.326Z,788.49
2018-01-01T00:14:25.124Z,788.49
2018-01-01T00:14:29.240Z,788.5
2018-01-01T00:14:33.042Z,788.48
2018-01-01T00:14:36.851Z,788.53
2018-01-01T00:14:40.547Z,788.52
2018-01-01T00:14:44.591Z,788.57
2018-01-01T00:14:48.493Z,788.52
2018-01-01T00:14:52.527Z,788.54
2018-01-01T00:14:56.335Z,788.52
2018-01-01T00:15:00.233Z,788.54
2018-01-01T00:15:04.205Z,788.54
2018-01-01T00:15:08.022Z,788.53
2018-01-01T00:15:11.821Z,788.55
2018-01-01T00:15:15.623Z,788.56
2018-01-01T00:15:19.418Z,788.57
2018-01-01T00:15:23.423Z,788.57
2018-01-01T00:15:27.113Z,788.57
2018-01-01T00:15:30.934Z,788.54
2018-01-01T00:15:34.961Z,788.57
2018-01-01T00:15:38.958Z,788.54
2018-01-01T00:15:42.775Z,788.54
2018-01-01T00:15:46.590Z,788.57
2018-01-01T00:15:50.293Z,788.52
2018-01-01T00:15:54.423Z,788.54
2018-01-01T00:15:58.118Z,788.55
2018-01-01T00:16:02.052Z,788.57
2018-01-01T00:16:06.052Z,788.6
2018-01-01T00:16:09.752Z,788.58
2018-01-01T00:16:13.881Z,788.59
2018-01-01T00:16:17.785Z,788.56
2018-01-01T00:16:21.597Z,788.57
2018-01-01T00:16:25.420Z,788.61
2018-01-01T00:16:29.323Z,788.6
2018-01-01T00:16:33.117Z,788.62
2018-01-01T00:16:36.920Z,788.64
2018-01-01T00:16:40.925Z,788.61
2018-01-01T00:16:44.631Z,788.64
2018-01-01T00:16:48.440Z,788.56
2018-01-01T00:16:52.372Z,788.59
2018-01-01T00:16:56.383Z,788.62
2018-01-01T00:17:00.290Z,788.64
2018-01-01T00:17:04.194Z,788.65
2018-01-01T00:17:08.214Z,788.62
2018-01-01T00:17:12.086Z,788.66
2018-01-01T00:17:15.804Z,788.62
2018-01-01T00:17:19.620Z,788.64
2018-01-01T00:17:23.416Z,788.66
2018-01-01T00:17:27.442Z,788.64
2018-01-01T00:17:31.375Z,788.63
2018-01-01T00:17:35.390Z,788.63
2018-01-01T00:17:39.209Z,788.65
2018-01-01T00:17:43.129Z,788.67
2018-01-01T00:17:46.929Z,788.65
2018-01-01T00:17:50.828Z,788.66
2018-01-01T00:17:54.734Z,788.66
2018-01-01T00:17:58.643Z,788.69
2018-01-01T00:18:03.037Z,788.65
2018-01-01T00:18:06.955Z,788.7
2018-01-01T00:18:10.863Z,788.72
2018-01-01T00:18:14.764Z,788.7
2018-01-01T00:18:18.777Z,788.72
2018-01-01T00:18:22.582Z,788.68
2018-01-01T00:18:26.505Z,788.66
2018-01-01T00:18:30.411Z,788.71
2018-01-01T00:18:34.389Z,788.71
2018-01-01T00:18:38.197Z,788.72
2018-01-01T00:18:42.285Z,788.72
2018-01-01T00:18:45.973Z,788.75
2018-01-01T00:18:49.979Z,788.76
2018-01-01T00:18:53.687Z,788.75
2018-01-01T00:18:57.597Z,788.78
2018-01-01T00:19:01.420Z,788.75
2018-01-01T00:19:05.586Z,788.77
2018-01-01T00:19:09.484Z,788.78
2018-01-01T00:19:13.390Z,788.79
2018-01-01T00:19:17.073Z,788.73
2018-01-01T00:19:20.864Z,788.76
2018-01-01T00:19:24.982Z,788.79
2018-01-01T00:19:28.793Z,788.78
2018-01-01T00:19:32.581Z,788.72
2018-01-01T00:19:36.481Z,788.78
2018-01-01T00:19:40.278Z,788.78
2018-01-01T00:19:44.101Z,788.83
2018-01-01T00:19:48.134Z,788.81
2018-01-01T00:19:51.843Z,788.83
2018-01-01T00:19:55.659Z,788.84
2018-01-01T00:19:59.347Z,788.82
2018-01-01T00:20:03.318Z,788.88
2018-01-01T00:20:07.028Z,788.82
2018-01-01T00:20:10.822Z,788.88
2018-01-01T00:20:14.625Z,788.89
2018-01-01T00:20:18.550Z,788.89
2018-01-01T00:20:22.349Z,788.85
2018-01-01T00:20:26.368Z,788.88
2018-01-01T00:20:30.168Z,788.85
2018-01-01T00:20:34.006Z,788.89
2018-01-01T00:20:37.836Z,788.88
2018-01-01T00:20:41.643Z,788.88
2018-01-01T00:20:45.451Z,788.87
2018-01-01T00:20:49.242Z,788.88
2018-01-01T00:20:53.260Z,788.92
2018-01-01T00:20:56.967Z,788.86
2018-01-01T00:21:00.886Z,788.89
2018-01-01T00:21:04.839Z,788.9
2018-01-01T00:21:08.860Z,788.92
2018-01-01T00:21:12.769Z,788.94
2018-01-01T00:21:16.573Z,788.88
2018-01-01T00:21:20.495Z,788.97
2018-01-01T00:21:24.317Z,788.93
2018-01-01T00:21:28.135Z,788.89
2018-01-01T00:21:31.840Z,788.92
2018-01-01T00:21:35.526Z,788.95
2018-01-01T00:21:39.354Z,788.91
2018-01-01T00:21:43.152Z,788.97
2018-01-01T00:21:47.282Z,788.95
2018-01-01T00:21:51.105Z,788.96
2018-01-01T00:21:54.796Z,788.97
2018-01-01T00:21:58.807Z,788.98
2018-01-01T00:22:02.677Z,788.96
2018-01-01T00:22:06.813Z,788.93
2018-01-01T00:22:10.729Z,788.98
2018-01-01T00:22:14.646Z,788.95
2018-01-01T00:22:18.556Z,788.98
2018-01-01T00:22:22.558Z,788.97
2018-01-01T00:22:26.557Z,788.94
2018-01-01T00:22:30.376Z,788.96
2018-01-01T00:22:34.173Z,788.95
2018-01-01T00:22:38.068Z,788.97
2018-01-01T00:22:42.078Z,788.98
2018-01-01T00:22:45.894Z,788.98
2018-01-01T00:22:49.694Z,789
2018-01-01T00:22:53.613Z,789.01
2018-01-01T00:22:57.530Z,789.02
2018-01-01T00:23:01.437Z,789.03
2018-01-01T00:23:05.263Z,789.03
2018-01-01T00:23:09.189Z,789.04
2018-01-01T00:23:13.106Z,788.99
2018-01-01T00:23:16.917Z,789.03
2018-01-01T00:23:20.818Z,789.04
2018-01-01T00:23:24.515Z,789.05
2018-01-01T00:23:28.636Z,789.07
2018-01-01T00:23:32.450Z,789.08
2018-01-01T00:23:36.249Z,789.06
2018-01-01T00:23:39.947Z,789.08
2018-01-01T00:23:43.751Z,789.09
2018-01-01T00:23:47.467Z,789.08
2018-01-01T00:23:51.561Z,789.09
2018-01-01T00:23:55.566Z,789.13
2018-01-01T00:23:59.372Z,789.12
2018-01-01T00:24:03.498Z,789.07
2018-01-01T00:24:07.416Z,789.11
2018-01-01T00:24:11.445Z,789.12
2018-01-01T00:24:15.371Z,789.13
2018-01-01T00:24:19.390Z,789.11
2018-01-01T00:24:23.184Z,789.13
2018-01-01T00:24:26.872Z,789.14
2018-01-01T00:24:30.766Z,789.16
2018-01-01T00:24:34.779Z,789.16
2018-01-01T00:24:38.585Z,789.13
2018-01-01T00:24:42.700Z,789.12
2018-01-01T00:24:46.521Z,789.18
2018-01-01T00:24:50.431Z,789.19
2018-01-01T00:24:54.354Z,789.2
2018-01-01T00:24:58.360Z,789.18
2018-01-01T00:25:02.318Z,789.18
2018-01-01T00:25:06.111Z,789.18
2018-01-01T00:25:09.930Z,789.21
2018-01-01T00:25:13.848Z,789.2
2018-01-01T00:25:17.659Z,789.14
2018-01-01T00:25:21.570Z,789.2
2018-01-01T00:25:25.590Z,789.17
2018-01-01T00:25:29.709Z,789.19
2018-01-01T00:25:33.522Z,789.22
2018-01-01T00:25:37.209Z,789.19
2018-01-01T00:25:41.010Z,789.22
2018-01-01T00:25:44.716Z,789.25
2018-01-01T00:25:48.746Z,789.26
2018-01-01T00:25:52.656Z,789.27
2018-01-01T00:25:56.367Z,789.26
2018-01-01T00:26:00.282Z,789.27
2018-01-01T00:26:04.199Z,789.29
2018-01-01T00:26:08.111Z,789.29
2018-01-01T00:26:12.035Z,789.31
2018-01-01T00:26:15.954Z,789.3
2018-01-01T00:26:19.758Z,789.31
2018-01-01T00:26:23.656Z,789.34
2018-01-01T00:26:27.670Z,789.34
2018-01-01T00:26:31.575Z,789.34
2018-01-01T00:26:35.470Z,789.36
2018-01-01T00:26:39.597Z,789.3
2018-01-01T00:26:43.403Z,789.34
2018-01-01T00:26:47.406Z,789.33
2018-01-01T00:26:51.335Z,789.36
2018-01-01T00:26:55.251Z,789.38
2018-01-01T00:26:59.259Z,789.38
2018-01-01T00:27:03.271Z,789.39
2018-01-01T00:27:07.298Z,789.38
2018-01-01T00:27:11.210Z,789.38
2018-01-01T00:27:14.908Z,789.36
2018-01-01T00:27:18.925Z,789.35
2018-01-01T00:27:22.943Z,789.43
2018-01-01T00:27:26.971Z,789.44
2018-01-01T00:27:31.147Z,789.47
2018-01-01T00:27:34.836Z,789.47
2018-01-01T00:27:38.543Z,789.45
2018-01-01T00:27:42.459Z,789.47
2018-01-01T00:27:46.364Z,789.47
2018-01-01T00:27:50.581Z,789.51
2018-01-01T00:27:54.494Z,789.48
2018-01-01T00:27:58.518Z,789.5
2018-01-01T00:28:02.326Z,789.48
2018-01-01T00:28:06.341Z,789.5
2018-01-01T00:28:10.341Z,789.53
2018-01-01T00:28:14.139Z,789.54
2018-01-01T00:28:17.836Z,789.5
2018-01-01T00:28:21.966Z,789.54
2018-01-01T00:28:25.971Z,789.55
2018-01-01T00:28:29.784Z,789.58
2018-01-01T00:28:33.700Z,789.54
2018-01-01T00:28:37.709Z,789.55
2018-01-01T00:28:41.506Z,789.63
2018-01-01T00:28:45.536Z,789.58
2018-01-01T00:28:49.447Z,789.6
2018-01-01T00:28:53.467Z,789.66
2018-01-01T00:28:58.023Z,789.63
2018-01-01T00:29:02.341Z,789.64
2018-01-01T00:29:06.354Z,789.63
2018-01-01T00:29:10.047Z,789.61
2018-01-01T00:29:13.745Z,789.67
2018-01-01T00:29:17.436Z,789.67
2018-01-01T00:29:21.245Z,789.66
2018-01-01T00:29:25.047Z,789.7
2018-01-01T00:29:28.955Z,789.69
2018-01-01T00:29:32.847Z,789.7
2018-01-01T00:29:36.636Z,789.72
2018-01-01T00:29:40.646Z,789.73
2018-01-01T00:29:44.554Z,789.69
2018-01-01T00:29:48.623Z,789.71
2018-01-01T00:29:52.438Z,789.74
2018-01-01T00:29:56.249Z,789.74
2018-01-01T00:30:00.053Z,789.74
2018-01-01T00:30:04.525Z,789.74
2018-01-01T00:30:08.595Z,789.77
2018-01-01T00:30:12.518Z,789.77
2018-01-01T00:30:16.764Z,789.85
2018-01-01T00:30:20.649Z,789.86
2018-01-01T00:30:24.573Z,789.86
2018-01-01T00:30:28.635Z,789.85
2018-01-01T00:30:32.644Z,789.86
2018-01-01T00:30:36.451Z,789.88
2018-01-01T00:30:40.359Z,789.84
2018-01-01T00:30:44.270Z,789.89
2018-01-01T00:30:48.086Z,789.87
2018-01-01T00:30:51.892Z,789.93
2018-01-01T00:30:55.893Z,789.94
2018-01-01T00:30:59.946Z,789.94
2018-01-01T00:31:04.007Z,789.97
2018-01-01T00:31:07.914Z,789.98
2018-01-01T00:31:12.192Z,789.98
2018-01-01T00:31:16.011Z,789.97
2018-01-01T00:31:20.028Z,790.03
2018-01-01T00:31:23.933Z,789.98
2018-01-01T00:31:27.728Z,790.01
2018-01-01T00:31:31.641Z,790.03
2018-01-01T00:31:35.671Z,790.02
2018-01-01T00:31:39.795Z,790.07
2018-01-01T00:31:43.816Z,790.08
2018-01-01T00:31:47.623Z,790.08
2018-01-01T00:31:51.651Z,790.08
2018-01-01T00:31:55.450Z,790.09
2018-01-01T00:31:59.373Z,790.11
2018-01-01T00:32:03.588Z,790.17
2018-01-01T00:32:07.711Z,790.12
2018-01-01T00:32:11.748Z,790.16
2018-01-01T00:32:15.560Z,790.21
2018-01-01T00:32:19.469Z,790.19
2018-01-01T00:32:23.390Z,790.2
2018-01-01T00:32:27.310Z,790.2
2018-01-01T00:32:31.021Z,790.24
2018-01-01T00:32:34.829Z,790.22
2018-01-01T00:32:38.965Z,790.23
2018-01-01T00:32:42.984Z,790.26
2018-01-01T00:32:46.816Z,790.28
2018-01-01T00:32:50.635Z,790.26
2018-01-01T00:32:54.441Z,790.3
2018-01-01T00:32:58.335Z,790.31
2018-01-01T00:33:02.253Z,790.35
2018-01-01T00:33:06.159Z,790.3
2018-01-01T00:33:10.076Z,790.34
2018-01-01T00:33:14.083Z,790.38
2018-01-01T00:33:17.971Z,790.38
2018-01-01T00:33:21.981Z,790.38
2018-01-01T00:33:25.889Z,790.38
2018-01-01T00:33:29.812Z,790.4
2018-01-01T00:33:33.828Z,790.39
2018-01-01T00:33:37.629Z,790.42
2018-01-01T00:33:41.431Z,790.41
2018-01-01T00:33:45.234Z,790.45
2018-01-01T00:33:49.142Z,790.47
2018-01-01T00:33:53.064Z,790.44
2018-01-01T00:33:56.972Z,790.5
2018-01-01T00:34:00.788Z,790.48
2018-01-01T00:34:04.824Z,790.48
2018-01-01T00:34:08.727Z,790.51
2018-01-01T00:34:12.431Z,790.51
2018-01-01T00:34:16.327Z,790.54
2018-01-01T00:34:20.263Z,790.53
2018-01-01T00:34:24.592Z,790.55
2018-01-01T00:34:28.366Z,790.57
2018-01-01T00:34:32.084Z,790.6
2018-01-01T00:34:36.194Z,790.62
2018-01-01T00:34:39.988Z,790.62
2018-01-01T00:34:43.908Z,790.65
2018-01-01T00:34:47.713Z,790.65
2018-01-01T00:34:51.407Z,790.63
2018-01-01T00:34:55.424Z,790.68
2018-01-01T00:34:59.131Z,790.68
2018-01-01T00:35:03.146Z,790.7
2018-01-01T00:35:07.049Z,790.71
2018-01-01T00:35:10.941Z,790.74
2018-01-01T00:35:14.858Z,790.73
2018-01-01T00:35:18.981Z,790.76
2018-01-01T00:35:22.902Z,790.77
2018-01-01T00:35:26.802Z,790.8
2018-01-01T00:35:30.935Z,790.8
2018-01-01T00:35:34.737Z,790.8
2018-01-01T00:35:38.641Z,790.8
2018-01-01T00:35:42.759Z,790.79
2018-01-01T00:35:46.784Z,790.82
2018-01-01T00:35:50.816Z,790.85
2018-01-01T00:35:54.822Z,790.85
2018-01-01T00:35:58.730Z,790.88
2018-01-01T00:36:02.747Z,790.85
2018-01-01T00:36:06.557Z,790.86
2018-01-01T00:36:10.488Z,790.9
2018-01-01T00:36:14.300Z,790.95
2018-01-01T00:36:18.208Z,790.95
2018-01-01T00:36:22.007Z,790.96
2018-01-01T00:36:26.135Z,790.98
2018-01-01T00:36:30.102Z,790.98
2018-01-01T00:36:33.916Z,791.04
2018-01-01T00:36:37.827Z,791.05
2018-01-01T00:36:41.722Z,791.05
2018-01-01T00:36:45.641Z,791.07
2018-01-01T00:36:49.458Z,791.04
2018-01-01T00:36:53.253Z,791.09
2018-01-01T00:36:57.283Z,791.12
2018-01-01T00:37:01.301Z,791.12
2018-01-01T00:37:05.466Z,791.18
2018-01-01T00:37:09.374Z,791.17
2018-01-01T00:37:13.290Z,791.22
2018-01-01T00:37:17.104Z,791.23
2018-01-01T00:37:21.113Z,791.26
2018-01-01T00:37:24.918Z,791.24
2018-01-01T00:37:28.628Z,791.27
2018-01-01T00:37:32.438Z,791.29
2018-01-01T00:37:36.242Z,791.28
2018-01-01T00:37:40.261Z,791.29
2018-01-01T00:37:44.293Z,791.33
2018-01-01T00:37:48.000Z,791.33
2018-01-01T00:37:51.820Z,791.36
2018-01-01T00:37:55.831Z,791.39
2018-01-01T00:37:59.634Z,791.39
2018-01-01T00:38:03.329Z,791.42
2018-01-01T00:38:07.329Z,791.38
2018-01-01T00:38:11.250Z,791.36
2018-01-01T00:38:15.365Z,791.41
2018-01-01T00:38:19.480Z,791.42
2018-01-01T00:38:23.396Z,791.45
2018-01-01T00:38:27.635Z,791.5
2018-01-01T00:38:31.337Z,791.51
2018-01-01T00:38:35.132Z,791.52
2018-01-01T00:38:38.843Z,791.54
2018-01-01T00:38:42.662Z,791.56
2018-01-01T00:38:46.574Z,791.56
2018-01-01T00:38:50.367Z,791.58
2018-01-01T00:38:54.380Z,791.58
2018-01-01T00:38:58.176Z,791.61
2018-01-01T00:39:02.355Z,791.61
2018-01-01T00:39:06.255Z,791.63
2018-01-01T00:39:10.160Z,791.64
2018-01-01T00:39:14.088Z,791.65
2018-01-01T00:39:18.098Z,791.67
2018-01-01T00:39:21.915Z,791.69
2018-01-01T00:39:25.944Z,791.71
2018-01-01T00:39:29.866Z,791.78
2018-01-01T00:39:33.793Z,791.72
2018-01-01T00:39:37.603Z,791.76
2018-01-01T00:39:41.414Z,791.79
2018-01-01T00:39:45.228Z,791.77
2018-01-01T00:39:49.347Z,791.8
2018-01-01T00:39:53.251Z,791.77
2018-01-01T00:39:57.192Z,791.82
2018-01-01T00:40:00.996Z,791.82
2018-01-01T00:40:05.270Z,791.88
2018-01-01T00:40:09.485Z,791.9
2018-01-01T00:40:13.296Z,791.9
2018-01-01T00:40:17.090Z,791.92
2018-01-01T00:40:20.901Z,791.93
2018-01-01T00:40:24.810Z,791.92
2018-01-01T00:40:28.710Z,791.95
2018-01-01T00:40:32.632Z,791.96
2018-01-01T00:40:36.323Z,791.98
2018-01-01T00:40:40.336Z,792
2018-01-01T00:40:44.137Z,792.03
2018-01-01T00:40:48.078Z,792
2018-01-01T00:40:52.153Z,792.05
2018-01-01T00:40:56.065Z,792.09
2018-01-01T00:41:00.199Z,792.1
2018-01-01T00:41:04.130Z,792.13
2018-01-01T00:41:07.934Z,792.13
2018-01-01T00:41:11.741Z,792.16
2018-01-01T00:41:15.856Z,792.18
2018-01-01T00:41:19.771Z,792.15
2018-01-01T00:41:23.792Z,792.19
2018-01-01T00:41:27.919Z,792.18
2018-01-01T00:41:31.709Z,792.21
2018-01-01T00:41:35.505Z,792.22
2018-01-01T00:41:39.324Z,792.24
2018-01-01T00:41:43.129Z,792.24
2018-01-01T00:41:47.169Z,792.3
2018-01-01T00:41:51.183Z,792.32
2018-01-01T00:41:55.471Z,792.38
2018-01-01T00:41:59.399Z,792.35
2018-01-01T00:42:03.484Z,792.39
2018-01-01T00:42:07.192Z,792.39
2018-01-01T00:42:11.113Z,792.43
2018-01-01T00:42:15.233Z,792.46
2018-01-01T00:42:19.246Z,792.5
2018-01-01T00:42:22.952Z,792.5
2018-01-01T00:42:26.958Z,792.53
2018-01-01T00:42:30.666Z,792.54
2018-01-01T00:42:34.777Z,792.61
2018-01-01T00:42:38.799Z,792.58
2018-01-01T00:42:42.609Z,792.62
2018-01-01T00:42:46.531Z,792.6
2018-01-01T00:42:50.342Z,792.66
2018-01-01T00:42:54.248Z,792.66
2018-01-01T00:42:58.050Z,792.65
2018-01-01T00:43:01.910Z,792.69
2018-01-01T00:43:05.718Z,792.7
2018-01-01T00:43:09.428Z,792.74
2018-01-01T00:43:13.455Z,792.73
2018-01-01T00:43:17.369Z,792.78
2018-01-01T00:43:21.182Z,792.78
2018-01-01T00:43:24.980Z,792.83
2018-01-01T00:43:29.196Z,792.84
2018-01-01T00:43:33.217Z,792.84
2018-01-01T00:43:37.109Z,792.86
2018-01-01T00:43:40.914Z,792.85
2018-01-01T00:43:45.038Z,792.89
2018-01-01T00:43:48.947Z,792.88
2018-01-01T00:43:52.753Z,792.91
2018-01-01T00:43:56.565Z,792.95
2018-01-01T00:44:00.474Z,792.94
2018-01-01T00:44:04.576Z,792.95
2018-01-01T00:44:08.530Z,792.94
2018-01-01T00:44:12.531Z,792.98
2018-01-01T00:44:16.248Z,792.97
2018-01-01T00:44:20.157Z,793.01
2018-01-01T00:44:24.186Z,793.07
2018-01-01T00:44:28.110Z,793.1
2018-01-01T00:44:32.135Z,793.14
2018-01-01T00:44:36.162Z,793.15
2018-01-01T00:44:40.179Z,793.17
2018-01-01T00:44:44.086Z,793.18
2018-01-01T00:44:47.994Z,793.19
2018-01-01T00:44:51.819Z,793.21
2018-01-01T00:44:55.856Z,793.24
2018-01-01T00:44:59.671Z,793.26
2018-01-01T00:45:03.738Z,793.24
2018-01-01T00:45:07.769Z,793.26
2018-01-01T00:45:11.579Z,793.33
2018-01-01T00:45:15.399Z,793.33
2018-01-01T00:45:19.309Z,793.36
2018-01-01T00:45:23.230Z,793.37
2018-01-01T00:45:27.128Z,793.4
2018-01-01T00:45:31.149Z,793.36
2018-01-01T00:45:35.070Z,793.38
2018-01-01T00:45:38.990Z,793.43
2018-01-01T00:45:42.894Z,793.41
2018-01-01T00:45:46.792Z,793.43
2018-01-01T00:45:50.595Z,793.46
2018-01-01T00:45:54.497Z,793.44
2018-01-01T00:45:58.412Z,793.51
2018-01-01T00:46:02.420Z,793.5
2018-01-01T00:46:06.343Z,793.49
2018-01-01T00:46:10.155Z,793.56
2018-01-01T00:46:14.054Z,793.56
2018-01-01T00:46:17.850Z,793.57
2018-01-01T00:46:21.870Z,793.58
2018-01-01T00:46:25.770Z,793.62
2018-01-01T00:46:29.763Z,793.66
2018-01-01T00:46:33.778Z,793.65
2018-01-01T00:46:37.587Z,793.67
2018-01-01T00:46:41.496Z,793.7
2018-01-01T00:46:45.518Z,793.7
2018-01-01T00:46:49.518Z,793.71
2018-01-01T00:46:53.589Z,793.73
2018-01-01T00:46:57.761Z,793.77
2018-01-01T00:47:01.565Z,793.79
2018-01-01T00:47:05.387Z,793.79
2018-01-01T00:47:09.084Z,793.84
2018-01-01T00:47:12.785Z,793.83
2018-01-01T00:47:16.581Z,793.84
2018-01-01T00:47:20.389Z,793.92
2018-01-01T00:47:24.304Z,793.89
2018-01-01T00:47:28.324Z,793.93
2018-01-01T00:47:32.126Z,793.95
2018-01-01T00:47:36.145Z,793.96
2018-01-01T00:47:39.944Z,794.01
2018-01-01T00:47:43.844Z,794.02
2018-01-01T00:47:47.860Z,794.05
2018-01-01T00:47:51.771Z,794.04
2018-01-01T00:47:55.785Z,794.01
2018-01-01T00:47:59.807Z,794.05
2018-01-01T00:48:03.731Z,794.07
2018-01-01T00:48:07.653Z,794.16
2018-01-01T00:48:11.691Z,794.18
2018-01-01T00:48:15.495Z,794.21
2018-01-01T00:48:19.412Z,794.23
2018-01-01T00:48:23.331Z,794.22
2018-01-01T00:48:27.352Z,794.24
2018-01-01T00:48:31.473Z,794.27
2018-01-01T00:48:35.505Z,794.31
2018-01-01T00:48:39.623Z,794.3
2018-01-01T00:48:43.449Z,794.36
2018-01-01T00:48:47.457Z,794.36
2018-01-01T00:48:51.568Z,794.37
2018-01-01T00:48:55.595Z,794.41
2018-01-01T00:48:59.410Z,794.41
2018-01-01T00:49:03.332Z,794.45
2018-01-01T00:49:07.127Z,794.48
2018-01-01T00:49:11.062Z,794.5
2018-01-01T00:49:14.759Z,794.5
2018-01-01T00:49:19.009Z,794.53
2018-01-01T00:49:23.008Z,794.58